sensor_id;sensor_type;location;lat;lon;timestamp;P1;durP1;ratioP1;P2;durP2;ratioP2
22644;SDS011;11489;50.834;6.752;2023-12-20T00:02:21;7.95;;;5.43;;
22644;SDS011;11489;50.834;6.752;2023-12-20T00:04:47;9.10;;;5.40;;
22644;SDS011;11489;50.834;6.752;2023-12-20T00:07:12;9.65;;;5.50;;
22644;SDS011;11489;50.834;6.752;2023-12-20T00:09:38;8.10;;;5.38;;
22644;SDS011;11489;50.834;6.752;2023-12-20T00:12:04;8.98;;;5.63;;
22644;SDS011;11489;50.834;6.752;2023-12-20T00:14:30;9.32;;;5.68;;
22644;SDS011;11489;50.834;6.752;2023-12-20T00:16:55;9.45;;;5.13;;
22644;SDS011;11489;50.834;6.752;2023-12-20T00:19:21;9.52;;;5.15;;
22644;SDS011;11489;50.834;6.752;2023-12-20T00:21:47;9.68;;;5.40;;
22644;SDS011;11489;50.834;6.752;2023-12-20T00:24:12;9.85;;;5.38;;
22644;SDS011;11489;50.834;6.752;2023-12-20T00:26:38;7.47;;;5.38;;
22644;SDS011;11489;50.834;6.752;2023-12-20T00:29:04;9.18;;;5.63;;
22644;SDS011;11489;50.834;6.752;2023-12-20T00:31:29;9.32;;;5.15;;
22644;SDS011;11489;50.834;6.752;2023-12-20T00:33:55;10.52;;;5.72;;
22644;SDS011;11489;50.834;6.752;2023-12-20T00:36:21;8.30;;;5.15;;
22644;SDS011;11489;50.834;6.752;2023-12-20T00:38:47;8.30;;;5.38;;
22644;SDS011;11489;50.834;6.752;2023-12-20T00:41:13;8.45;;;5.53;;
22644;SDS011;11489;50.834;6.752;2023-12-20T00:43:39;8.68;;;5.70;;
22644;SDS011;11489;50.834;6.752;2023-12-20T00:46:04;9.50;;;6.18;;
22644;SDS011;11489;50.834;6.752;2023-12-20T00:48:30;10.13;;;6.63;;
22644;SDS011;11489;50.834;6.752;2023-12-20T00:50:56;9.50;;;6.30;;
22644;SDS011;11489;50.834;6.752;2023-12-20T00:53:22;10.10;;;6.45;;
22644;SDS011;11489;50.834;6.752;2023-12-20T00:55:48;11.07;;;7.40;;
22644;SDS011;11489;50.834;6.752;2023-12-20T00:58:15;15.90;;;7.75;;
22644;SDS011;11489;50.834;6.752;2023-12-20T01:00:41;12.23;;;8.18;;
22644;SDS011;11489;50.834;6.752;2023-12-20T01:03:08;12.77;;;8.68;;
22644;SDS011;11489;50.834;6.752;2023-12-20T01:05:33;15.02;;;8.88;;
22644;SDS011;11489;50.834;6.752;2023-12-20T01:07:59;15.85;;;9.23;;
22644;SDS011;11489;50.834;6.752;2023-12-20T01:10:25;15.88;;;8.88;;
22644;SDS011;11489;50.834;6.752;2023-12-20T01:12:53;15.10;;;9.00;;
22644;SDS011;11489;50.834;6.752;2023-12-20T01:15:19;15.07;;;8.68;;
22644;SDS011;11489;50.834;6.752;2023-12-20T01:17:44;15.20;;;8.95;;
22644;SDS011;11489;50.834;6.752;2023-12-20T01:20:10;12.98;;;7.85;;
22644;SDS011;11489;50.834;6.752;2023-12-20T01:22:36;13.63;;;8.02;;
22644;SDS011;11489;50.834;6.752;2023-12-20T01:25:02;12.93;;;7.70;;
22644;SDS011;11489;50.834;6.752;2023-12-20T01:27:27;12.52;;;7.55;;
22644;SDS011;11489;50.834;6.752;2023-12-20T01:29:53;12.77;;;7.43;;
22644;SDS011;11489;50.834;6.752;2023-12-20T01:32:19;13.45;;;7.97;;
22644;SDS011;11489;50.834;6.752;2023-12-20T01:34:45;15.88;;;8.35;;
22644;SDS011;11489;50.834;6.752;2023-12-20T01:37:10;16.85;;;9.35;;
22644;SDS011;11489;50.834;6.752;2023-12-20T01:39:36;19.13;;;9.57;;
22644;SDS011;11489;50.834;6.752;2023-12-20T01:42:02;14.80;;;8.93;;
22644;SDS011;11489;50.834;6.752;2023-12-20T01:44:27;18.77;;;10.07;;
22644;SDS011;11489;50.834;6.752;2023-12-20T01:46:53;20.23;;;10.40;;
22644;SDS011;11489;50.834;6.752;2023-12-20T01:49:19;19.25;;;10.13;;
22644;SDS011;11489;50.834;6.752;2023-12-20T01:51:45;17.58;;;9.52;;
22644;SDS011;11489;50.834;6.752;2023-12-20T01:54:11;16.95;;;9.02;;
22644;SDS011;11489;50.834;6.752;2023-12-20T01:56:38;15.00;;;7.57;;
22644;SDS011;11489;50.834;6.752;2023-12-20T01:59:05;13.00;;;5.68;;
22644;SDS011;11489;50.834;6.752;2023-12-20T02:01:31;16.90;;;5.82;;
22644;SDS011;11489;50.834;6.752;2023-12-20T02:03:57;14.95;;;3.97;;
22644;SDS011;11489;50.834;6.752;2023-12-20T02:06:24;15.55;;;3.88;;
22644;SDS011;11489;50.834;6.752;2023-12-20T02:08:54;12.85;;;3.65;;
22644;SDS011;11489;50.834;6.752;2023-12-20T02:11:19;13.35;;;2.80;;
22644;SDS011;11489;50.834;6.752;2023-12-20T02:13:46;7.93;;;2.70;;
22644;SDS011;11489;50.834;6.752;2023-12-20T02:16:12;9.00;;;2.50;;
22644;SDS011;11489;50.834;6.752;2023-12-20T02:18:37;10.20;;;2.38;;
22644;SDS011;11489;50.834;6.752;2023-12-20T02:21:04;14.25;;;2.63;;
22644;SDS011;11489;50.834;6.752;2023-12-20T02:23:31;6.80;;;2.22;;
22644;SDS011;11489;50.834;6.752;2023-12-20T02:25:56;11.30;;;2.70;;
22644;SDS011;11489;50.834;6.752;2023-12-20T02:28:22;8.88;;;2.33;;
22644;SDS011;11489;50.834;6.752;2023-12-20T02:30:48;10.27;;;2.47;;
22644;SDS011;11489;50.834;6.752;2023-12-20T02:33:14;11.18;;;2.35;;
22644;SDS011;11489;50.834;6.752;2023-12-20T02:35:40;7.20;;;2.85;;
22644;SDS011;11489;50.834;6.752;2023-12-20T02:38:06;9.40;;;2.30;;
22644;SDS011;11489;50.834;6.752;2023-12-20T02:40:32;11.45;;;2.38;;
22644;SDS011;11489;50.834;6.752;2023-12-20T02:42:57;8.43;;;1.77;;
22644;SDS011;11489;50.834;6.752;2023-12-20T02:45:23;14.02;;;2.35;;
22644;SDS011;11489;50.834;6.752;2023-12-20T02:47:49;7.55;;;1.98;;
22644;SDS011;11489;50.834;6.752;2023-12-20T02:50:14;9.43;;;2.03;;
22644;SDS011;11489;50.834;6.752;2023-12-20T02:52:40;11.15;;;2.25;;
22644;SDS011;11489;50.834;6.752;2023-12-20T02:55:06;5.45;;;1.88;;
22644;SDS011;11489;50.834;6.752;2023-12-20T02:57:31;12.68;;;2.03;;
22644;SDS011;11489;50.834;6.752;2023-12-20T02:59:58;6.55;;;1.83;;
22644;SDS011;11489;50.834;6.752;2023-12-20T03:02:24;11.50;;;2.40;;
22644;SDS011;11489;50.834;6.752;2023-12-20T03:04:49;11.35;;;2.35;;
22644;SDS011;11489;50.834;6.752;2023-12-20T03:07:15;9.95;;;2.17;;
22644;SDS011;11489;50.834;6.752;2023-12-20T03:09:41;11.13;;;2.70;;
22644;SDS011;11489;50.834;6.752;2023-12-20T03:12:06;7.35;;;2.00;;
22644;SDS011;11489;50.834;6.752;2023-12-20T03:14:32;8.10;;;2.53;;
22644;SDS011;11489;50.834;6.752;2023-12-20T03:16:57;11.30;;;2.28;;
22644;SDS011;11489;50.834;6.752;2023-12-20T03:19:23;10.32;;;2.53;;
22644;SDS011;11489;50.834;6.752;2023-12-20T03:21:49;12.65;;;3.53;;
22644;SDS011;11489;50.834;6.752;2023-12-20T03:24:15;10.13;;;2.60;;
22644;SDS011;11489;50.834;6.752;2023-12-20T03:26:40;12.27;;;2.60;;
22644;SDS011;11489;50.834;6.752;2023-12-20T03:29:06;10.25;;;2.80;;
22644;SDS011;11489;50.834;6.752;2023-12-20T03:31:32;10.48;;;2.92;;
22644;SDS011;11489;50.834;6.752;2023-12-20T03:33:57;11.80;;;3.17;;
22644;SDS011;11489;50.834;6.752;2023-12-20T03:36:23;14.57;;;2.72;;
22644;SDS011;11489;50.834;6.752;2023-12-20T03:38:49;10.32;;;3.03;;
22644;SDS011;11489;50.834;6.752;2023-12-20T03:41:14;9.82;;;2.60;;
22644;SDS011;11489;50.834;6.752;2023-12-20T03:43:40;13.38;;;3.42;;
22644;SDS011;11489;50.834;6.752;2023-12-20T03:46:08;11.30;;;3.15;;
22644;SDS011;11489;50.834;6.752;2023-12-20T03:48:33;12.13;;;2.95;;
22644;SDS011;11489;50.834;6.752;2023-12-20T03:50:59;9.30;;;3.03;;
22644;SDS011;11489;50.834;6.752;2023-12-20T03:53:25;16.98;;;3.38;;
22644;SDS011;11489;50.834;6.752;2023-12-20T03:55:50;14.95;;;3.55;;
22644;SDS011;11489;50.834;6.752;2023-12-20T03:58:16;10.40;;;2.92;;
22644;SDS011;11489;50.834;6.752;2023-12-20T04:00:42;12.93;;;3.20;;
22644;SDS011;11489;50.834;6.752;2023-12-20T04:03:07;10.40;;;3.40;;
22644;SDS011;11489;50.834;6.752;2023-12-20T04:05:33;11.40;;;3.60;;
22644;SDS011;11489;50.834;6.752;2023-12-20T04:07:59;14.07;;;3.72;;
22644;SDS011;11489;50.834;6.752;2023-12-20T04:10:26;11.20;;;3.88;;
22644;SDS011;11489;50.834;6.752;2023-12-20T04:12:52;7.38;;;3.90;;
22644;SDS011;11489;50.834;6.752;2023-12-20T04:15:18;9.35;;;3.60;;
22644;SDS011;11489;50.834;6.752;2023-12-20T04:17:44;11.75;;;4.00;;
22644;SDS011;11489;50.834;6.752;2023-12-20T04:20:09;15.95;;;4.32;;
22644;SDS011;11489;50.834;6.752;2023-12-20T04:22:35;11.70;;;4.30;;
22644;SDS011;11489;50.834;6.752;2023-12-20T04:25:01;11.65;;;4.30;;
22644;SDS011;11489;50.834;6.752;2023-12-20T04:27:27;9.60;;;4.18;;
22644;SDS011;11489;50.834;6.752;2023-12-20T04:29:53;16.50;;;4.30;;
22644;SDS011;11489;50.834;6.752;2023-12-20T04:32:18;12.50;;;4.30;;
22644;SDS011;11489;50.834;6.752;2023-12-20T04:34:44;11.45;;;4.07;;
22644;SDS011;11489;50.834;6.752;2023-12-20T04:37:10;11.73;;;4.30;;
22644;SDS011;11489;50.834;6.752;2023-12-20T04:39:35;13.15;;;4.25;;
22644;SDS011;11489;50.834;6.752;2023-12-20T04:42:01;10.68;;;3.97;;
22644;SDS011;11489;50.834;6.752;2023-12-20T04:44:26;12.88;;;4.43;;
22644;SDS011;11489;50.834;6.752;2023-12-20T04:46:52;8.73;;;3.50;;
22644;SDS011;11489;50.834;6.752;2023-12-20T04:49:18;11.57;;;3.90;;
22644;SDS011;11489;50.834;6.752;2023-12-20T04:51:43;16.10;;;4.20;;
22644;SDS011;11489;50.834;6.752;2023-12-20T04:54:09;19.08;;;4.50;;
22644;SDS011;11489;50.834;6.752;2023-12-20T04:56:35;14.60;;;4.35;;
22644;SDS011;11489;50.834;6.752;2023-12-20T04:59:01;17.75;;;4.90;;
22644;SDS011;11489;50.834;6.752;2023-12-20T05:01:27;12.52;;;4.43;;
22644;SDS011;11489;50.834;6.752;2023-12-20T05:03:53;15.52;;;4.85;;
22644;SDS011;11489;50.834;6.752;2023-12-20T05:06:18;16.70;;;4.85;;
22644;SDS011;11489;50.834;6.752;2023-12-20T05:08:44;11.27;;;4.72;;
22644;SDS011;11489;50.834;6.752;2023-12-20T05:11:09;20.67;;;5.50;;
22644;SDS011;11489;50.834;6.752;2023-12-20T05:13:35;10.85;;;4.60;;
22644;SDS011;11489;50.834;6.752;2023-12-20T05:16:01;10.93;;;4.57;;
22644;SDS011;11489;50.834;6.752;2023-12-20T05:18:26;15.10;;;5.57;;
22644;SDS011;11489;50.834;6.752;2023-12-20T05:20:52;12.65;;;3.95;;
22644;SDS011;11489;50.834;6.752;2023-12-20T05:23:18;20.10;;;4.88;;
22644;SDS011;11489;50.834;6.752;2023-12-20T05:25:43;16.83;;;4.68;;
22644;SDS011;11489;50.834;6.752;2023-12-20T05:28:09;13.32;;;4.28;;
22644;SDS011;11489;50.834;6.752;2023-12-20T05:30:35;15.45;;;4.63;;
22644;SDS011;11489;50.834;6.752;2023-12-20T05:33:00;16.90;;;4.85;;
22644;SDS011;11489;50.834;6.752;2023-12-20T05:35:26;11.32;;;4.07;;
22644;SDS011;11489;50.834;6.752;2023-12-20T05:37:51;16.73;;;3.95;;
22644;SDS011;11489;50.834;6.752;2023-12-20T05:40:17;11.43;;;4.20;;
22644;SDS011;11489;50.834;6.752;2023-12-20T05:42:43;13.85;;;4.10;;
22644;SDS011;11489;50.834;6.752;2023-12-20T05:45:09;8.13;;;3.72;;
22644;SDS011;11489;50.834;6.752;2023-12-20T05:47:34;14.27;;;4.18;;
22644;SDS011;11489;50.834;6.752;2023-12-20T05:50:00;9.68;;;3.58;;
22644;SDS011;11489;50.834;6.752;2023-12-20T05:52:26;17.10;;;3.78;;
22644;SDS011;11489;50.834;6.752;2023-12-20T05:54:51;11.93;;;3.47;;
22644;SDS011;11489;50.834;6.752;2023-12-20T05:57:17;12.20;;;4.60;;
22644;SDS011;11489;50.834;6.752;2023-12-20T05:59:43;17.52;;;3.55;;
22644;SDS011;11489;50.834;6.752;2023-12-20T06:02:08;12.35;;;4.30;;
22644;SDS011;11489;50.834;6.752;2023-12-20T06:04:34;14.23;;;3.95;;
22644;SDS011;11489;50.834;6.752;2023-12-20T06:06:59;18.95;;;3.97;;
22644;SDS011;11489;50.834;6.752;2023-12-20T06:09:28;9.68;;;4.10;;
22644;SDS011;11489;50.834;6.752;2023-12-20T06:11:54;13.95;;;4.43;;
22644;SDS011;11489;50.834;6.752;2023-12-20T06:14:19;12.68;;;4.15;;
22644;SDS011;11489;50.834;6.752;2023-12-20T06:16:45;15.98;;;4.05;;
22644;SDS011;11489;50.834;6.752;2023-12-20T06:19:11;13.98;;;4.80;;
22644;SDS011;11489;50.834;6.752;2023-12-20T06:21:37;16.23;;;4.20;;
22644;SDS011;11489;50.834;6.752;2023-12-20T06:24:02;13.70;;;4.57;;
22644;SDS011;11489;50.834;6.752;2023-12-20T06:26:28;20.70;;;4.65;;
22644;SDS011;11489;50.834;6.752;2023-12-20T06:28:54;17.85;;;4.25;;
22644;SDS011;11489;50.834;6.752;2023-12-20T06:31:20;16.38;;;4.63;;
22644;SDS011;11489;50.834;6.752;2023-12-20T06:33:46;13.75;;;4.00;;
22644;SDS011;11489;50.834;6.752;2023-12-20T06:36:12;12.75;;;4.13;;
22644;SDS011;11489;50.834;6.752;2023-12-20T06:38:38;14.00;;;4.55;;
22644;SDS011;11489;50.834;6.752;2023-12-20T06:41:04;10.65;;;4.03;;
22644;SDS011;11489;50.834;6.752;2023-12-20T06:43:31;15.23;;;3.83;;
22644;SDS011;11489;50.834;6.752;2023-12-20T06:45:57;18.73;;;4.40;;
22644;SDS011;11489;50.834;6.752;2023-12-20T06:48:23;15.45;;;4.15;;
22644;SDS011;11489;50.834;6.752;2023-12-20T06:50:49;13.98;;;3.83;;
22644;SDS011;11489;50.834;6.752;2023-12-20T06:53:14;13.65;;;3.92;;
22644;SDS011;11489;50.834;6.752;2023-12-20T06:55:40;15.30;;;3.80;;
22644;SDS011;11489;50.834;6.752;2023-12-20T06:58:06;11.32;;;3.25;;
22644;SDS011;11489;50.834;6.752;2023-12-20T07:00:32;12.10;;;4.68;;
22644;SDS011;11489;50.834;6.752;2023-12-20T07:02:57;16.58;;;4.05;;
22644;SDS011;11489;50.834;6.752;2023-12-20T07:05:23;13.88;;;4.00;;
22644;SDS011;11489;50.834;6.752;2023-12-20T07:07:49;17.17;;;4.07;;
22644;SDS011;11489;50.834;6.752;2023-12-20T07:10:15;14.77;;;4.25;;
22644;SDS011;11489;50.834;6.752;2023-12-20T07:12:40;17.77;;;5.28;;
22644;SDS011;11489;50.834;6.752;2023-12-20T07:15:06;13.13;;;4.43;;
22644;SDS011;11489;50.834;6.752;2023-12-20T07:17:33;16.02;;;4.68;;
22644;SDS011;11489;50.834;6.752;2023-12-20T07:19:59;13.57;;;4.47;;
22644;SDS011;11489;50.834;6.752;2023-12-20T07:22:29;16.85;;;4.75;;
22644;SDS011;11489;50.834;6.752;2023-12-20T07:24:57;14.13;;;4.57;;
22644;SDS011;11489;50.834;6.752;2023-12-20T07:27:23;11.55;;;3.80;;
22644;SDS011;11489;50.834;6.752;2023-12-20T07:29:49;17.77;;;4.32;;
22644;SDS011;11489;50.834;6.752;2023-12-20T07:32:14;14.77;;;4.13;;
22644;SDS011;11489;50.834;6.752;2023-12-20T07:34:40;14.68;;;4.18;;
22644;SDS011;11489;50.834;6.752;2023-12-20T07:37:06;15.27;;;4.43;;
22644;SDS011;11489;50.834;6.752;2023-12-20T07:39:31;12.68;;;4.32;;
22644;SDS011;11489;50.834;6.752;2023-12-20T07:41:57;12.48;;;4.43;;
22644;SDS011;11489;50.834;6.752;2023-12-20T07:44:22;12.70;;;4.25;;
22644;SDS011;11489;50.834;6.752;2023-12-20T07:46:48;14.70;;;4.07;;
22644;SDS011;11489;50.834;6.752;2023-12-20T07:49:14;15.38;;;4.18;;
22644;SDS011;11489;50.834;6.752;2023-12-20T07:51:39;13.85;;;4.78;;
22644;SDS011;11489;50.834;6.752;2023-12-20T07:54:05;19.60;;;4.28;;
22644;SDS011;11489;50.834;6.752;2023-12-20T07:56:33;12.95;;;3.78;;
22644;SDS011;11489;50.834;6.752;2023-12-20T07:58:58;18.38;;;4.57;;
22644;SDS011;11489;50.834;6.752;2023-12-20T08:01:24;10.50;;;3.90;;
22644;SDS011;11489;50.834;6.752;2023-12-20T08:03:50;11.95;;;4.20;;
22644;SDS011;11489;50.834;6.752;2023-12-20T08:06:16;15.27;;;4.40;;
22644;SDS011;11489;50.834;6.752;2023-12-20T08:08:42;14.82;;;4.65;;
22644;SDS011;11489;50.834;6.752;2023-12-20T08:11:08;14.40;;;4.90;;
22644;SDS011;11489;50.834;6.752;2023-12-20T08:13:34;13.15;;;4.05;;
22644;SDS011;11489;50.834;6.752;2023-12-20T08:15:59;21.15;;;4.40;;
22644;SDS011;11489;50.834;6.752;2023-12-20T08:18:27;15.55;;;4.60;;
22644;SDS011;11489;50.834;6.752;2023-12-20T08:20:53;10.40;;;4.20;;
22644;SDS011;11489;50.834;6.752;2023-12-20T08:23:19;14.15;;;4.10;;
22644;SDS011;11489;50.834;6.752;2023-12-20T08:25:46;21.70;;;3.90;;
22644;SDS011;11489;50.834;6.752;2023-12-20T08:28:12;13.35;;;4.53;;
22644;SDS011;11489;50.834;6.752;2023-12-20T08:30:38;14.85;;;4.60;;
22644;SDS011;11489;50.834;6.752;2023-12-20T08:33:03;14.45;;;4.80;;
22644;SDS011;11489;50.834;6.752;2023-12-20T08:35:29;11.75;;;3.95;;
22644;SDS011;11489;50.834;6.752;2023-12-20T08:37:56;12.68;;;3.92;;
22644;SDS011;11489;50.834;6.752;2023-12-20T08:40:21;14.35;;;4.40;;
22644;SDS011;11489;50.834;6.752;2023-12-20T08:42:47;12.48;;;3.83;;
22644;SDS011;11489;50.834;6.752;2023-12-20T08:45:12;14.75;;;4.60;;
22644;SDS011;11489;50.834;6.752;2023-12-20T08:47:38;10.68;;;4.45;;
22644;SDS011;11489;50.834;6.752;2023-12-20T08:50:06;15.52;;;4.57;;
22644;SDS011;11489;50.834;6.752;2023-12-20T08:52:32;14.73;;;4.05;;
22644;SDS011;11489;50.834;6.752;2023-12-20T08:54:58;11.35;;;3.75;;
22644;SDS011;11489;50.834;6.752;2023-12-20T08:57:23;9.73;;;4.13;;
22644;SDS011;11489;50.834;6.752;2023-12-20T08:59:50;12.77;;;3.75;;
22644;SDS011;11489;50.834;6.752;2023-12-20T09:02:16;16.42;;;4.22;;
22644;SDS011;11489;50.834;6.752;2023-12-20T09:04:42;12.20;;;3.58;;
22644;SDS011;11489;50.834;6.752;2023-12-20T09:07:21;15.93;;;3.53;;
22644;SDS011;11489;50.834;6.752;2023-12-20T09:09:48;16.40;;;3.70;;
22644;SDS011;11489;50.834;6.752;2023-12-20T09:12:14;15.02;;;4.53;;
22644;SDS011;11489;50.834;6.752;2023-12-20T09:14:39;13.50;;;3.55;;
22644;SDS011;11489;50.834;6.752;2023-12-20T09:17:05;11.38;;;3.75;;
22644;SDS011;11489;50.834;6.752;2023-12-20T09:19:33;16.10;;;4.00;;
22644;SDS011;11489;50.834;6.752;2023-12-20T09:21:59;15.90;;;3.60;;
22644;SDS011;11489;50.834;6.752;2023-12-20T09:24:25;13.77;;;3.72;;
22644;SDS011;11489;50.834;6.752;2023-12-20T09:26:51;11.85;;;4.03;;
22644;SDS011;11489;50.834;6.752;2023-12-20T09:29:17;13.70;;;3.83;;
22644;SDS011;11489;50.834;6.752;2023-12-20T09:31:43;12.50;;;3.55;;
22644;SDS011;11489;50.834;6.752;2023-12-20T09:34:11;10.70;;;3.15;;
22644;SDS011;11489;50.834;6.752;2023-12-20T09:36:37;12.25;;;3.50;;
22644;SDS011;11489;50.834;6.752;2023-12-20T09:39:05;12.30;;;3.50;;
22644;SDS011;11489;50.834;6.752;2023-12-20T09:41:31;13.00;;;3.58;;
22644;SDS011;11489;50.834;6.752;2023-12-20T09:44:00;9.68;;;3.15;;
22644;SDS011;11489;50.834;6.752;2023-12-20T09:46:28;11.55;;;3.25;;
22644;SDS011;11489;50.834;6.752;2023-12-20T09:48:58;10.13;;;3.42;;
22644;SDS011;11489;50.834;6.752;2023-12-20T09:51:24;17.17;;;3.60;;
22644;SDS011;11489;50.834;6.752;2023-12-20T09:53:52;9.73;;;3.10;;
22644;SDS011;11489;50.834;6.752;2023-12-20T09:56:20;12.20;;;3.58;;
22644;SDS011;11489;50.834;6.752;2023-12-20T09:58:49;13.80;;;3.17;;
22644;SDS011;11489;50.834;6.752;2023-12-20T10:01:15;13.27;;;3.60;;
22644;SDS011;11489;50.834;6.752;2023-12-20T10:03:42;9.50;;;3.53;;
22644;SDS011;11489;50.834;6.752;2023-12-20T10:06:08;11.75;;;3.35;;
22644;SDS011;11489;50.834;6.752;2023-12-20T10:08:34;11.07;;;3.10;;
22644;SDS011;11489;50.834;6.752;2023-12-20T10:10:59;12.43;;;3.50;;
22644;SDS011;11489;50.834;6.752;2023-12-20T10:13:27;9.25;;;3.10;;
22644;SDS011;11489;50.834;6.752;2023-12-20T10:15:54;11.80;;;3.20;;
22644;SDS011;11489;50.834;6.752;2023-12-20T10:18:20;14.57;;;3.13;;
22644;SDS011;11489;50.834;6.752;2023-12-20T10:20:46;10.68;;;3.60;;
22644;SDS011;11489;50.834;6.752;2023-12-20T10:23:12;12.35;;;3.75;;
22644;SDS011;11489;50.834;6.752;2023-12-20T10:25:39;11.65;;;3.25;;
22644;SDS011;11489;50.834;6.752;2023-12-20T10:28:13;11.73;;;3.47;;
22644;SDS011;11489;50.834;6.752;2023-12-20T10:30:44;11.35;;;3.10;;
22644;SDS011;11489;50.834;6.752;2023-12-20T10:33:10;9.85;;;3.38;;
22644;SDS011;11489;50.834;6.752;2023-12-20T10:35:37;13.93;;;3.45;;
22644;SDS011;11489;50.834;6.752;2023-12-20T10:38:04;13.88;;;3.40;;
22644;SDS011;11489;50.834;6.752;2023-12-20T10:40:31;13.52;;;3.42;;
22644;SDS011;11489;50.834;6.752;2023-12-20T10:42:59;9.40;;;3.20;;
22644;SDS011;11489;50.834;6.752;2023-12-20T10:45:27;14.32;;;3.28;;
22644;SDS011;11489;50.834;6.752;2023-12-20T10:47:53;16.63;;;4.47;;
22644;SDS011;11489;50.834;6.752;2023-12-20T10:50:19;11.77;;;3.10;;
22644;SDS011;11489;50.834;6.752;2023-12-20T10:52:46;15.82;;;3.42;;
22644;SDS011;11489;50.834;6.752;2023-12-20T10:55:12;12.70;;;3.70;;
22644;SDS011;11489;50.834;6.752;2023-12-20T10:57:38;10.75;;;3.13;;
22644;SDS011;11489;50.834;6.752;2023-12-20T11:00:04;10.02;;;3.17;;
22644;SDS011;11489;50.834;6.752;2023-12-20T11:02:35;9.05;;;3.50;;
22644;SDS011;11489;50.834;6.752;2023-12-20T11:07:35;13.73;;;3.67;;
22644;SDS011;11489;50.834;6.752;2023-12-20T11:10:14;11.55;;;3.25;;
22644;SDS011;11489;50.834;6.752;2023-12-20T11:12:57;8.63;;;3.00;;
22644;SDS011;11489;50.834;6.752;2023-12-20T11:15:34;9.93;;;2.97;;
22644;SDS011;11489;50.834;6.752;2023-12-20T11:18:03;14.63;;;3.45;;
22644;SDS011;11489;50.834;6.752;2023-12-20T11:20:40;12.13;;;3.38;;
22644;SDS011;11489;50.834;6.752;2023-12-20T11:23:06;16.92;;;3.63;;
22644;SDS011;11489;50.834;6.752;2023-12-20T11:25:45;12.73;;;3.53;;
22644;SDS011;11489;50.834;6.752;2023-12-20T11:28:23;11.85;;;3.67;;
22644;SDS011;11489;50.834;6.752;2023-12-20T11:30:53;9.75;;;3.78;;
22644;SDS011;11489;50.834;6.752;2023-12-20T11:33:21;9.75;;;3.45;;
22644;SDS011;11489;50.834;6.752;2023-12-20T11:35:48;11.15;;;4.13;;
22644;SDS011;11489;50.834;6.752;2023-12-20T11:38:14;12.50;;;3.63;;
22644;SDS011;11489;50.834;6.752;2023-12-20T11:40:43;10.68;;;3.28;;
22644;SDS011;11489;50.834;6.752;2023-12-20T11:43:09;8.25;;;3.35;;
22644;SDS011;11489;50.834;6.752;2023-12-20T11:45:35;11.65;;;3.72;;
22644;SDS011;11489;50.834;6.752;2023-12-20T11:48:03;11.77;;;3.17;;
22644;SDS011;11489;50.834;6.752;2023-12-20T11:50:29;8.70;;;3.13;;
22644;SDS011;11489;50.834;6.752;2023-12-20T11:52:56;11.30;;;3.42;;
22644;SDS011;11489;50.834;6.752;2023-12-20T11:55:22;10.43;;;3.47;;
22644;SDS011;11489;50.834;6.752;2023-12-20T11:57:49;14.52;;;3.70;;
22644;SDS011;11489;50.834;6.752;2023-12-20T12:00:16;11.73;;;3.28;;
22644;SDS011;11489;50.834;6.752;2023-12-20T12:02:42;10.32;;;3.47;;
22644;SDS011;11489;50.834;6.752;2023-12-20T12:05:08;10.90;;;3.63;;
22644;SDS011;11489;50.834;6.752;2023-12-20T12:07:34;7.70;;;3.22;;
22644;SDS011;11489;50.834;6.752;2023-12-20T12:10:00;13.02;;;3.38;;
22644;SDS011;11489;50.834;6.752;2023-12-20T12:12:26;9.23;;;3.20;;
22644;SDS011;11489;50.834;6.752;2023-12-20T12:14:53;13.63;;;3.63;;
22644;SDS011;11489;50.834;6.752;2023-12-20T12:17:19;11.45;;;3.65;;
22644;SDS011;11489;50.834;6.752;2023-12-20T12:19:45;8.98;;;3.38;;
22644;SDS011;11489;50.834;6.752;2023-12-20T12:22:12;9.90;;;3.55;;
22644;SDS011;11489;50.834;6.752;2023-12-20T12:24:48;13.13;;;3.67;;
22644;SDS011;11489;50.834;6.752;2023-12-20T12:27:14;11.05;;;3.10;;
22644;SDS011;11489;50.834;6.752;2023-12-20T12:29:41;13.38;;;3.70;;
22644;SDS011;11489;50.834;6.752;2023-12-20T12:32:24;8.40;;;3.03;;
22644;SDS011;11489;50.834;6.752;2023-12-20T12:34:50;9.02;;;3.50;;
22644;SDS011;11489;50.834;6.752;2023-12-20T12:37:16;13.88;;;3.63;;
22644;SDS011;11489;50.834;6.752;2023-12-20T12:39:42;10.60;;;3.60;;
22644;SDS011;11489;50.834;6.752;2023-12-20T12:42:07;11.18;;;3.60;;
22644;SDS011;11489;50.834;6.752;2023-12-20T12:44:33;12.25;;;3.42;;
22644;SDS011;11489;50.834;6.752;2023-12-20T12:46:58;9.70;;;3.55;;
22644;SDS011;11489;50.834;6.752;2023-12-20T12:49:24;9.93;;;3.40;;
22644;SDS011;11489;50.834;6.752;2023-12-20T12:51:51;17.40;;;3.80;;
22644;SDS011;11489;50.834;6.752;2023-12-20T12:54:16;11.38;;;3.47;;
22644;SDS011;11489;50.834;6.752;2023-12-20T12:56:43;11.57;;;3.90;;
22644;SDS011;11489;50.834;6.752;2023-12-20T12:59:09;14.90;;;3.70;;
22644;SDS011;11489;50.834;6.752;2023-12-20T13:01:35;13.77;;;3.42;;
22644;SDS011;11489;50.834;6.752;2023-12-20T13:04:00;9.20;;;3.28;;
22644;SDS011;11489;50.834;6.752;2023-12-20T13:06:32;13.13;;;3.83;;
22644;SDS011;11489;50.834;6.752;2023-12-20T13:08:57;10.52;;;3.25;;
22644;SDS011;11489;50.834;6.752;2023-12-20T13:11:23;12.90;;;3.50;;
22644;SDS011;11489;50.834;6.752;2023-12-20T13:13:50;10.98;;;3.30;;
22644;SDS011;11489;50.834;6.752;2023-12-20T13:16:15;12.88;;;4.10;;
22644;SDS011;11489;50.834;6.752;2023-12-20T13:18:41;10.38;;;3.40;;
22644;SDS011;11489;50.834;6.752;2023-12-20T13:21:08;15.38;;;3.92;;
22644;SDS011;11489;50.834;6.752;2023-12-20T13:23:34;12.95;;;3.85;;
22644;SDS011;11489;50.834;6.752;2023-12-20T13:26:00;10.63;;;3.72;;
22644;SDS011;11489;50.834;6.752;2023-12-20T13:28:25;10.27;;;3.95;;
22644;SDS011;11489;50.834;6.752;2023-12-20T13:30:51;12.70;;;3.78;;
22644;SDS011;11489;50.834;6.752;2023-12-20T13:33:17;12.93;;;3.80;;
22644;SDS011;11489;50.834;6.752;2023-12-20T13:35:42;14.38;;;3.55;;
22644;SDS011;11489;50.834;6.752;2023-12-20T13:38:09;11.32;;;3.47;;
22644;SDS011;11489;50.834;6.752;2023-12-20T13:40:35;14.65;;;4.70;;
22644;SDS011;11489;50.834;6.752;2023-12-20T13:43:00;12.45;;;3.67;;
22644;SDS011;11489;50.834;6.752;2023-12-20T13:45:28;11.25;;;3.30;;
22644;SDS011;11489;50.834;6.752;2023-12-20T13:47:53;9.82;;;2.97;;
22644;SDS011;11489;50.834;6.752;2023-12-20T13:50:19;15.10;;;3.60;;
22644;SDS011;11489;50.834;6.752;2023-12-20T13:52:45;14.70;;;3.35;;
22644;SDS011;11489;50.834;6.752;2023-12-20T13:55:11;15.85;;;3.72;;
22644;SDS011;11489;50.834;6.752;2023-12-20T13:57:37;8.27;;;3.00;;
22644;SDS011;11489;50.834;6.752;2023-12-20T14:00:03;12.65;;;3.08;;
22644;SDS011;11489;50.834;6.752;2023-12-20T14:02:30;9.20;;;3.03;;
22644;SDS011;11489;50.834;6.752;2023-12-20T14:04:55;7.68;;;2.97;;
22644;SDS011;11489;50.834;6.752;2023-12-20T14:07:21;12.02;;;3.45;;
22644;SDS011;11489;50.834;6.752;2023-12-20T14:09:46;10.10;;;3.20;;
22644;SDS011;11489;50.834;6.752;2023-12-20T14:12:13;8.10;;;3.17;;
22644;SDS011;11489;50.834;6.752;2023-12-20T14:14:38;10.57;;;3.05;;
22644;SDS011;11489;50.834;6.752;2023-12-20T14:17:04;6.82;;;2.70;;
22644;SDS011;11489;50.834;6.752;2023-12-20T14:19:34;8.85;;;2.90;;
22644;SDS011;11489;50.834;6.752;2023-12-20T14:21:59;10.50;;;2.55;;
22644;SDS011;11489;50.834;6.752;2023-12-20T14:24:29;7.43;;;2.90;;
22644;SDS011;11489;50.834;6.752;2023-12-20T14:26:55;7.63;;;2.78;;
22644;SDS011;11489;50.834;6.752;2023-12-20T14:29:20;10.18;;;2.55;;
22644;SDS011;11489;50.834;6.752;2023-12-20T14:31:46;9.50;;;2.80;;
22644;SDS011;11489;50.834;6.752;2023-12-20T14:34:12;6.88;;;2.75;;
22644;SDS011;11489;50.834;6.752;2023-12-20T14:36:37;9.85;;;2.78;;